Le Roy, Kansas
Current Conditions -  °F | °C
As of 9:52 PM on Sunday 23 Nov 2014 (Local Time) from KCNU Reporting Station
Overcast Overcast  
Wind Chill: 35°   Ceiling: 7000
Heat Index: 43°   Visibility: 10mi
Dew Point: 37°   Wind: 17mph
Humidity: 80%   Direction: 330°NNW
Pressure: 29.54"   Gusts: 26mph
Location:  38.08°N, 95.63°W
Report Text: KCNU 240352Z AUTO 33015G23KT 10SM SCT055 BKN070 OVC085 06/03 A2954 RMK AO2 PK WND 33029/0254 RAE12 SLP000 P0000 T00610028
Loading
Personal Weather Stations






























Interactive Weather Map New forecast layout! Learn more

10-Day Weather Forecast

Advertisements
Track Severe Weather on mobile